sensor_id;sensor_type;location;lat;lon;timestamp;temperature;humidity
14397;DHT22;50653;47.810;13.022;2023-04-24T00:00:02;13.00;99.90
14397;DHT22;50653;47.810;13.022;2023-04-24T00:02:31;13.20;99.90
14397;DHT22;50653;47.810;13.022;2023-04-24T00:04:57;13.50;99.90
14397;DHT22;50653;47.810;13.022;2023-04-24T00:07:22;13.70;99.90
14397;DHT22;50653;47.810;13.022;2023-04-24T00:09:48;13.80;99.90
14397;DHT22;50653;47.810;13.022;2023-04-24T00:12:14;13.70;99.90
14397;DHT22;50653;47.810;13.022;2023-04-24T00:14:39;13.20;99.90
14397;DHT22;50653;47.810;13.022;2023-04-24T00:17:05;13.20;99.90
14397;DHT22;50653;47.810;13.022;2023-04-24T00:19:31;13.10;99.90
14397;DHT22;50653;47.810;13.022;2023-04-24T00:21:57;12.60;99.90
14397;DHT22;50653;47.810;13.022;2023-04-24T00:24:22;13.00;99.90
14397;DHT22;50653;47.810;13.022;2023-04-24T00:26:48;13.20;99.90
14397;DHT22;50653;47.810;13.022;2023-04-24T00:29:14;13.10;99.90
14397;DHT22;50653;47.810;13.022;2023-04-24T00:31:40;13.30;99.90
14397;DHT22;50653;47.810;13.022;2023-04-24T00:34:05;13.20;99.90
14397;DHT22;50653;47.810;13.022;2023-04-24T00:36:31;13.40;99.90
14397;DHT22;50653;47.810;13.022;2023-04-24T00:38:58;13.20;99.90
14397;DHT22;50653;47.810;13.022;2023-04-24T00:41:24;13.30;99.90
14397;DHT22;50653;47.810;13.022;2023-04-24T00:43:52;13.20;99.90
14397;DHT22;50653;47.810;13.022;2023-04-24T00:46:17;13.30;99.90
14397;DHT22;50653;47.810;13.022;2023-04-24T00:48:43;13.20;99.90
14397;DHT22;50653;47.810;13.022;2023-04-24T00:51:09;13.30;99.90
14397;DHT22;50653;47.810;13.022;2023-04-24T00:53:35;13.30;99.90
14397;DHT22;50653;47.810;13.022;2023-04-24T00:56:01;13.30;99.90
14397;DHT22;50653;47.810;13.022;2023-04-24T00:58:28;13.40;99.90
14397;DHT22;50653;47.810;13.022;2023-04-24T01:00:54;13.20;99.90
14397;DHT22;50653;47.810;13.022;2023-04-24T01:03:26;13.20;99.90
14397;DHT22;50653;47.810;13.022;2023-04-24T01:05:54;13.10;99.90
14397;DHT22;50653;47.810;13.022;2023-04-24T01:08:22;13.00;99.90
14397;DHT22;50653;47.810;13.022;2023-04-24T01:10:51;13.10;99.90
14397;DHT22;50653;47.810;13.022;2023-04-24T01:13:19;13.00;99.90
14397;DHT22;50653;47.810;13.022;2023-04-24T01:15:45;12.90;99.90
14397;DHT22;50653;47.810;13.022;2023-04-24T01:18:11;13.00;99.90
14397;DHT22;50653;47.810;13.022;2023-04-24T01:20:40;13.10;99.90
14397;DHT22;50653;47.810;13.022;2023-04-24T01:23:07;12.80;99.90
14397;DHT22;50653;47.810;13.022;2023-04-24T01:25:33;12.80;99.90
14397;DHT22;50653;47.810;13.022;2023-04-24T01:27:59;12.90;99.90
14397;DHT22;50653;47.810;13.022;2023-04-24T01:30:26;12.80;99.90
14397;DHT22;50653;47.810;13.022;2023-04-24T01:32:53;12.80;99.90
14397;DHT22;50653;47.810;13.022;2023-04-24T01:35:19;12.80;99.90
14397;DHT22;50653;47.810;13.022;2023-04-24T01:37:45;12.80;99.90
14397;DHT22;50653;47.810;13.022;2023-04-24T01:40:11;12.70;99.90
14397;DHT22;50653;47.810;13.022;2023-04-24T01:42:37;12.70;99.90
14397;DHT22;50653;47.810;13.022;2023-04-24T01:45:04;12.70;99.90
14397;DHT22;50653;47.810;13.022;2023-04-24T01:47:31;12.60;99.90
14397;DHT22;50653;47.810;13.022;2023-04-24T01:49:57;12.70;99.90
14397;DHT22;50653;47.810;13.022;2023-04-24T01:52:23;12.70;99.90
14397;DHT22;50653;47.810;13.022;2023-04-24T01:54:49;12.80;99.90
14397;DHT22;50653;47.810;13.022;2023-04-24T01:57:16;13.00;99.90
14397;DHT22;50653;47.810;13.022;2023-04-24T01:59:42;12.90;99.90
14397;DHT22;50653;47.810;13.022;2023-04-24T02:02:08;12.80;99.90
14397;DHT22;50653;47.810;13.022;2023-04-24T02:04:34;12.50;99.90
14397;DHT22;50653;47.810;13.022;2023-04-24T02:07:00;12.60;99.90
14397;DHT22;50653;47.810;13.022;2023-04-24T02:09:26;12.70;99.90
14397;DHT22;50653;47.810;13.022;2023-04-24T02:11:51;12.80;99.90
14397;DHT22;50653;47.810;13.022;2023-04-24T02:14:17;13.00;99.90
14397;DHT22;50653;47.810;13.022;2023-04-24T02:16:43;13.10;99.90
14397;DHT22;50653;47.810;13.022;2023-04-24T02:19:09;13.10;99.90
14397;DHT22;50653;47.810;13.022;2023-04-24T02:21:35;12.90;99.90
14397;DHT22;50653;47.810;13.022;2023-04-24T02:24:01;12.90;99.90
14397;DHT22;50653;47.810;13.022;2023-04-24T02:26:27;13.00;99.90
14397;DHT22;50653;47.810;13.022;2023-04-24T02:28:53;13.00;99.90
14397;DHT22;50653;47.810;13.022;2023-04-24T02:31:20;13.00;99.90
14397;DHT22;50653;47.810;13.022;2023-04-24T02:33:47;13.00;99.90
14397;DHT22;50653;47.810;13.022;2023-04-24T02:36:13;13.00;99.90
14397;DHT22;50653;47.810;13.022;2023-04-24T02:38:39;12.90;99.90
14397;DHT22;50653;47.810;13.022;2023-04-24T02:41:05;13.00;99.90
14397;DHT22;50653;47.810;13.022;2023-04-24T02:43:32;12.90;99.90
14397;DHT22;50653;47.810;13.022;2023-04-24T02:45:58;12.90;99.90
14397;DHT22;50653;47.810;13.022;2023-04-24T02:48:24;12.90;99.90
14397;DHT22;50653;47.810;13.022;2023-04-24T02:50:50;12.70;99.90
14397;DHT22;50653;47.810;13.022;2023-04-24T02:53:16;12.60;99.90
14397;DHT22;50653;47.810;13.022;2023-04-24T02:55:42;12.70;99.90
14397;DHT22;50653;47.810;13.022;2023-04-24T02:58:08;12.70;99.90
14397;DHT22;50653;47.810;13.022;2023-04-24T03:00:34;12.60;99.90
14397;DHT22;50653;47.810;13.022;2023-04-24T03:03:00;12.60;99.90
14397;DHT22;50653;47.810;13.022;2023-04-24T03:05:25;12.70;99.90
14397;DHT22;50653;47.810;13.022;2023-04-24T03:07:52;12.80;99.90
14397;DHT22;50653;47.810;13.022;2023-04-24T03:10:20;12.70;99.90
14397;DHT22;50653;47.810;13.022;2023-04-24T03:12:48;12.70;99.90
14397;DHT22;50653;47.810;13.022;2023-04-24T03:15:13;12.80;99.90
14397;DHT22;50653;47.810;13.022;2023-04-24T03:17:39;12.50;99.90
14397;DHT22;50653;47.810;13.022;2023-04-24T03:20:05;12.50;99.90
14397;DHT22;50653;47.810;13.022;2023-04-24T03:22:31;12.50;99.90
14397;DHT22;50653;47.810;13.022;2023-04-24T03:24:59;12.50;99.90
14397;DHT22;50653;47.810;13.022;2023-04-24T03:27:25;12.40;99.90
14397;DHT22;50653;47.810;13.022;2023-04-24T03:29:54;12.60;99.90
14397;DHT22;50653;47.810;13.022;2023-04-24T03:32:25;12.40;99.90
14397;DHT22;50653;47.810;13.022;2023-04-24T03:34:51;12.50;99.90
14397;DHT22;50653;47.810;13.022;2023-04-24T03:37:17;12.50;99.90
14397;DHT22;50653;47.810;13.022;2023-04-24T03:39:49;12.60;99.90
14397;DHT22;50653;47.810;13.022;2023-04-24T03:42:18;12.40;99.90
14397;DHT22;50653;47.810;13.022;2023-04-24T03:44:51;12.50;99.90
14397;DHT22;50653;47.810;13.022;2023-04-24T03:47:19;12.50;99.90
14397;DHT22;50653;47.810;13.022;2023-04-24T03:49:46;12.40;99.90
14397;DHT22;50653;47.810;13.022;2023-04-24T03:52:12;12.40;99.90
14397;DHT22;50653;47.810;13.022;2023-04-24T03:54:39;12.40;99.90
14397;DHT22;50653;47.810;13.022;2023-04-24T03:57:05;12.40;99.90
14397;DHT22;50653;47.810;13.022;2023-04-24T03:59:32;12.50;99.90
14397;DHT22;50653;47.810;13.022;2023-04-24T04:02:08;12.40;99.90
14397;DHT22;50653;47.810;13.022;2023-04-24T04:04:34;12.40;99.90
14397;DHT22;50653;47.810;13.022;2023-04-24T04:07:00;12.50;99.90
14397;DHT22;50653;47.810;13.022;2023-04-24T04:09:28;12.50;99.90
14397;DHT22;50653;47.810;13.022;2023-04-24T04:11:55;12.40;99.90
14397;DHT22;50653;47.810;13.022;2023-04-24T04:14:21;12.50;99.90
14397;DHT22;50653;47.810;13.022;2023-04-24T04:16:47;12.40;99.90
14397;DHT22;50653;47.810;13.022;2023-04-24T04:19:13;11.90;99.90
14397;DHT22;50653;47.810;13.022;2023-04-24T04:21:39;12.20;99.90
14397;DHT22;50653;47.810;13.022;2023-04-24T04:24:19;12.20;99.90
14397;DHT22;50653;47.810;13.022;2023-04-24T04:26:50;12.20;99.90
14397;DHT22;50653;47.810;13.022;2023-04-24T04:29:36;12.40;99.90
14397;DHT22;50653;47.810;13.022;2023-04-24T04:32:05;12.20;99.90
14397;DHT22;50653;47.810;13.022;2023-04-24T04:34:31;12.30;99.90
14397;DHT22;50653;47.810;13.022;2023-04-24T04:36:59;12.30;99.90
14397;DHT22;50653;47.810;13.022;2023-04-24T04:39:43;12.30;99.90
14397;DHT22;50653;47.810;13.022;2023-04-24T04:42:15;12.40;99.90
14397;DHT22;50653;47.810;13.022;2023-04-24T04:44:42;12.40;99.90
14397;DHT22;50653;47.810;13.022;2023-04-24T04:47:14;12.40;99.90
14397;DHT22;50653;47.810;13.022;2023-04-24T04:49:41;12.10;99.90
14397;DHT22;50653;47.810;13.022;2023-04-24T04:52:15;12.30;99.90
14397;DHT22;50653;47.810;13.022;2023-04-24T04:54:43;12.30;99.90
14397;DHT22;50653;47.810;13.022;2023-04-24T04:57:10;12.30;99.90
14397;DHT22;50653;47.810;13.022;2023-04-24T04:59:36;12.30;99.90
14397;DHT22;50653;47.810;13.022;2023-04-24T05:02:07;12.10;99.90
14397;DHT22;50653;47.810;13.022;2023-04-24T05:04:32;12.20;99.90
14397;DHT22;50653;47.810;13.022;2023-04-24T05:06:58;12.10;99.90
14397;DHT22;50653;47.810;13.022;2023-04-24T05:09:26;12.00;99.90
14397;DHT22;50653;47.810;13.022;2023-04-24T05:11:59;12.10;99.90
14397;DHT22;50653;47.810;13.022;2023-04-24T05:14:26;12.20;99.90
14397;DHT22;50653;47.810;13.022;2023-04-24T05:16:52;12.10;99.90
14397;DHT22;50653;47.810;13.022;2023-04-24T05:19:20;12.10;99.90
14397;DHT22;50653;47.810;13.022;2023-04-24T05:21:46;12.20;99.90
14397;DHT22;50653;47.810;13.022;2023-04-24T05:24:11;12.10;99.90
14397;DHT22;50653;47.810;13.022;2023-04-24T05:26:51;12.20;99.90
14397;DHT22;50653;47.810;13.022;2023-04-24T05:29:22;12.10;99.90
14397;DHT22;50653;47.810;13.022;2023-04-24T05:31:48;12.00;99.90
14397;DHT22;50653;47.810;13.022;2023-04-24T05:34:14;12.20;99.90
14397;DHT22;50653;47.810;13.022;2023-04-24T05:36:43;12.40;99.90
14397;DHT22;50653;47.810;13.022;2023-04-24T05:39:09;12.30;99.90
14397;DHT22;50653;47.810;13.022;2023-04-24T05:41:35;12.20;99.90
14397;DHT22;50653;47.810;13.022;2023-04-24T05:44:00;12.00;99.90
14397;DHT22;50653;47.810;13.022;2023-04-24T05:46:26;12.20;99.90
14397;DHT22;50653;47.810;13.022;2023-04-24T05:48:51;12.30;99.90
14397;DHT22;50653;47.810;13.022;2023-04-24T05:51:18;12.10;99.90
14397;DHT22;50653;47.810;13.022;2023-04-24T05:53:43;12.20;99.90
14397;DHT22;50653;47.810;13.022;2023-04-24T05:56:11;12.30;99.90
14397;DHT22;50653;47.810;13.022;2023-04-24T05:58:36;12.40;99.90
14397;DHT22;50653;47.810;13.022;2023-04-24T06:01:03;12.40;99.90
14397;DHT22;50653;47.810;13.022;2023-04-24T06:03:29;12.30;99.90
14397;DHT22;50653;47.810;13.022;2023-04-24T06:05:55;12.20;99.90
14397;DHT22;50653;47.810;13.022;2023-04-24T06:08:22;12.20;99.90
14397;DHT22;50653;47.810;13.022;2023-04-24T06:10:48;12.20;99.90
14397;DHT22;50653;47.810;13.022;2023-04-24T06:13:17;12.20;99.90
14397;DHT22;50653;47.810;13.022;2023-04-24T06:15:56;12.30;99.90
14397;DHT22;50653;47.810;13.022;2023-04-24T06:18:30;12.20;99.90
14397;DHT22;50653;47.810;13.022;2023-04-24T06:20:56;12.30;99.90
14397;DHT22;50653;47.810;13.022;2023-04-24T06:23:23;12.20;99.90
14397;DHT22;50653;47.810;13.022;2023-04-24T06:25:48;12.20;99.90
14397;DHT22;50653;47.810;13.022;2023-04-24T06:28:15;12.20;99.90
14397;DHT22;50653;47.810;13.022;2023-04-24T06:30:41;12.30;99.90
14397;DHT22;50653;47.810;13.022;2023-04-24T06:33:06;12.20;99.90
14397;DHT22;50653;47.810;13.022;2023-04-24T06:35:32;12.30;99.90
14397;DHT22;50653;47.810;13.022;2023-04-24T06:37:58;12.40;99.90
14397;DHT22;50653;47.810;13.022;2023-04-24T06:40:24;12.40;99.90
14397;DHT22;50653;47.810;13.022;2023-04-24T06:42:49;12.30;99.90
14397;DHT22;50653;47.810;13.022;2023-04-24T06:45:15;12.20;99.90
14397;DHT22;50653;47.810;13.022;2023-04-24T06:47:41;12.20;99.90
14397;DHT22;50653;47.810;13.022;2023-04-24T06:50:07;12.30;99.90
14397;DHT22;50653;47.810;13.022;2023-04-24T06:52:32;12.40;99.90
14397;DHT22;50653;47.810;13.022;2023-04-24T06:55:02;12.20;99.90
14397;DHT22;50653;47.810;13.022;2023-04-24T06:57:28;12.30;99.90
14397;DHT22;50653;47.810;13.022;2023-04-24T06:59:55;12.40;99.90
14397;DHT22;50653;47.810;13.022;2023-04-24T07:02:20;12.30;99.90
14397;DHT22;50653;47.810;13.022;2023-04-24T07:04:46;12.20;99.90
14397;DHT22;50653;47.810;13.022;2023-04-24T07:07:13;12.40;99.90
14397;DHT22;50653;47.810;13.022;2023-04-24T07:09:40;12.50;99.90
14397;DHT22;50653;47.810;13.022;2023-04-24T07:12:08;12.50;99.90
14397;DHT22;50653;47.810;13.022;2023-04-24T07:14:36;12.40;99.90
14397;DHT22;50653;47.810;13.022;2023-04-24T07:17:03;12.40;99.90
14397;DHT22;50653;47.810;13.022;2023-04-24T07:19:28;12.30;99.90
14397;DHT22;50653;47.810;13.022;2023-04-24T07:21:55;12.40;99.90
14397;DHT22;50653;47.810;13.022;2023-04-24T07:24:20;12.40;99.90
14397;DHT22;50653;47.810;13.022;2023-04-24T07:26:46;12.40;99.90
14397;DHT22;50653;47.810;13.022;2023-04-24T07:29:12;12.50;99.90
14397;DHT22;50653;47.810;13.022;2023-04-24T07:31:39;12.40;99.90
14397;DHT22;50653;47.810;13.022;2023-04-24T07:34:06;12.30;99.90
14397;DHT22;50653;47.810;13.022;2023-04-24T07:36:32;12.30;99.90
14397;DHT22;50653;47.810;13.022;2023-04-24T07:38:57;12.30;99.90
14397;DHT22;50653;47.810;13.022;2023-04-24T07:41:23;12.40;99.90
14397;DHT22;50653;47.810;13.022;2023-04-24T07:43:49;12.50;99.90
14397;DHT22;50653;47.810;13.022;2023-04-24T07:46:15;12.50;99.90
14397;DHT22;50653;47.810;13.022;2023-04-24T07:48:41;12.50;99.90
14397;DHT22;50653;47.810;13.022;2023-04-24T07:51:07;12.40;99.90
14397;DHT22;50653;47.810;13.022;2023-04-24T07:53:35;12.30;99.90
14397;DHT22;50653;47.810;13.022;2023-04-24T07:56:01;12.50;99.90
14397;DHT22;50653;47.810;13.022;2023-04-24T07:58:26;12.60;99.90
14397;DHT22;50653;47.810;13.022;2023-04-24T08:00:52;12.60;99.90
14397;DHT22;50653;47.810;13.022;2023-04-24T08:03:18;12.60;99.90
14397;DHT22;50653;47.810;13.022;2023-04-24T08:05:45;12.70;99.90
14397;DHT22;50653;47.810;13.022;2023-04-24T08:08:11;12.70;99.90
14397;DHT22;50653;47.810;13.022;2023-04-24T08:10:36;12.70;99.90
14397;DHT22;50653;47.810;13.022;2023-04-24T08:13:02;12.50;99.90
14397;DHT22;50653;47.810;13.022;2023-04-24T08:15:28;12.70;99.90
14397;DHT22;50653;47.810;13.022;2023-04-24T08:17:54;12.80;99.90
14397;DHT22;50653;47.810;13.022;2023-04-24T08:20:19;12.70;99.90
14397;DHT22;50653;47.810;13.022;2023-04-24T08:22:45;12.70;99.90
14397;DHT22;50653;47.810;13.022;2023-04-24T08:25:13;12.70;99.90
14397;DHT22;50653;47.810;13.022;2023-04-24T08:27:38;12.60;99.90
14397;DHT22;50653;47.810;13.022;2023-04-24T08:30:05;12.80;99.90
14397;DHT22;50653;47.810;13.022;2023-04-24T08:32:31;12.80;99.90
14397;DHT22;50653;47.810;13.022;2023-04-24T08:34:57;12.70;99.90
14397;DHT22;50653;47.810;13.022;2023-04-24T08:37:23;12.70;99.90
14397;DHT22;50653;47.810;13.022;2023-04-24T08:39:49;12.80;99.90
14397;DHT22;50653;47.810;13.022;2023-04-24T08:42:17;12.70;99.90
14397;DHT22;50653;47.810;13.022;2023-04-24T08:44:43;12.80;99.90
14397;DHT22;50653;47.810;13.022;2023-04-24T08:47:10;12.70;99.90
14397;DHT22;50653;47.810;13.022;2023-04-24T08:49:37;12.80;99.90
14397;DHT22;50653;47.810;13.022;2023-04-24T08:52:03;12.80;99.90
14397;DHT22;50653;47.810;13.022;2023-04-24T08:54:31;12.90;99.90
14397;DHT22;50653;47.810;13.022;2023-04-24T08:56:59;12.90;99.90
14397;DHT22;50653;47.810;13.022;2023-04-24T08:59:30;12.80;99.90
14397;DHT22;50653;47.810;13.022;2023-04-24T09:01:56;12.70;99.90
14397;DHT22;50653;47.810;13.022;2023-04-24T09:04:23;12.90;99.90
14397;DHT22;50653;47.810;13.022;2023-04-24T09:06:55;12.90;99.90
14397;DHT22;50653;47.810;13.022;2023-04-24T09:09:22;12.90;99.90
14397;DHT22;50653;47.810;13.022;2023-04-24T09:11:52;12.70;99.90
14397;DHT22;50653;47.810;13.022;2023-04-24T09:14:20;12.60;99.90
14397;DHT22;50653;47.810;13.022;2023-04-24T09:16:47;12.70;99.90
14397;DHT22;50653;47.810;13.022;2023-04-24T09:19:12;12.70;99.90
14397;DHT22;50653;47.810;13.022;2023-04-24T09:21:38;12.80;99.90
14397;DHT22;50653;47.810;13.022;2023-04-24T09:24:08;12.90;99.90
14397;DHT22;50653;47.810;13.022;2023-04-24T09:26:39;12.90;99.90
14397;DHT22;50653;47.810;13.022;2023-04-24T09:29:05;12.80;99.90
14397;DHT22;50653;47.810;13.022;2023-04-24T09:31:31;13.00;99.90
14397;DHT22;50653;47.810;13.022;2023-04-24T09:33:59;12.90;99.90
14397;DHT22;50653;47.810;13.022;2023-04-24T09:36:30;13.00;99.90
14397;DHT22;50653;47.810;13.022;2023-04-24T09:38:59;13.10;99.90
14397;DHT22;50653;47.810;13.022;2023-04-24T09:41:25;13.20;99.90
14397;DHT22;50653;47.810;13.022;2023-04-24T09:43:53;13.30;99.90
14397;DHT22;50653;47.810;13.022;2023-04-24T09:46:20;13.20;99.90
14397;DHT22;50653;47.810;13.022;2023-04-24T09:48:47;13.30;99.90
14397;DHT22;50653;47.810;13.022;2023-04-24T09:51:13;13.10;99.90
14397;DHT22;50653;47.810;13.022;2023-04-24T09:53:45;13.00;99.90
14397;DHT22;50653;47.810;13.022;2023-04-24T09:56:14;13.10;99.90
14397;DHT22;50653;47.810;13.022;2023-04-24T09:58:39;13.20;99.90
14397;DHT22;50653;47.810;13.022;2023-04-24T10:01:05;13.30;99.90
14397;DHT22;50653;47.810;13.022;2023-04-24T10:03:32;13.30;99.90
14397;DHT22;50653;47.810;13.022;2023-04-24T10:06:02;13.30;99.90
14397;DHT22;50653;47.810;13.022;2023-04-24T10:08:34;13.30;99.90
14397;DHT22;50653;47.810;13.022;2023-04-24T10:11:00;13.10;99.90
14397;DHT22;50653;47.810;13.022;2023-04-24T10:13:28;12.60;99.90
14397;DHT22;50653;47.810;13.022;2023-04-24T10:15:54;12.80;99.90
14397;DHT22;50653;47.810;13.022;2023-04-24T10:18:21;12.90;99.90
14397;DHT22;50653;47.810;13.022;2023-04-24T10:20:47;12.90;99.90
14397;DHT22;50653;47.810;13.022;2023-04-24T10:23:13;13.00;99.90
14397;DHT22;50653;47.810;13.022;2023-04-24T10:25:39;12.80;99.90
14397;DHT22;50653;47.810;13.022;2023-04-24T10:28:05;12.90;99.90
14397;DHT22;50653;47.810;13.022;2023-04-24T10:30:33;12.90;99.90
14397;DHT22;50653;47.810;13.022;2023-04-24T10:33:03;12.70;99.90
14397;DHT22;50653;47.810;13.022;2023-04-24T10:35:36;12.70;99.90
14397;DHT22;50653;47.810;13.022;2023-04-24T10:38:09;12.90;99.90
14397;DHT22;50653;47.810;13.022;2023-04-24T10:40:36;13.00;99.90
14397;DHT22;50653;47.810;13.022;2023-04-24T10:43:03;13.00;99.90
14397;DHT22;50653;47.810;13.022;2023-04-24T10:45:31;12.90;99.90
14397;DHT22;50653;47.810;13.022;2023-04-24T10:47:59;12.90;99.90
14397;DHT22;50653;47.810;13.022;2023-04-24T10:53:20;12.90;99.90
14397;DHT22;50653;47.810;13.022;2023-04-24T10:56:12;12.80;99.90
14397;DHT22;50653;47.810;13.022;2023-04-24T10:58:43;12.80;99.90
14397;DHT22;50653;47.810;13.022;2023-04-24T11:01:29;12.70;99.90
14397;DHT22;50653;47.810;13.022;2023-04-24T11:03:57;12.80;99.90
14397;DHT22;50653;47.810;13.022;2023-04-24T11:06:33;12.90;99.90
14397;DHT22;50653;47.810;13.022;2023-04-24T11:09:08;12.90;99.90
14397;DHT22;50653;47.810;13.022;2023-04-24T11:11:36;12.90;99.90
14397;DHT22;50653;47.810;13.022;2023-04-24T11:14:06;12.90;99.90
14397;DHT22;50653;47.810;13.022;2023-04-24T11:16:34;13.00;99.90
14397;DHT22;50653;47.810;13.022;2023-04-24T11:26:55;13.00;99.90
14397;DHT22;50653;47.810;13.022;2023-04-24T11:29:22;13.20;99.90
14397;DHT22;50653;47.810;13.022;2023-04-24T11:31:48;13.10;99.90
14397;DHT22;50653;47.810;13.022;2023-04-24T11:34:17;13.20;99.90
14397;DHT22;50653;47.810;13.022;2023-04-24T11:36:46;13.40;99.90
14397;DHT22;50653;47.810;13.022;2023-04-24T11:39:15;13.30;99.90
14397;DHT22;50653;47.810;13.022;2023-04-24T11:41:41;13.30;99.90
14397;DHT22;50653;47.810;13.022;2023-04-24T11:44:09;13.40;99.90
14397;DHT22;50653;47.810;13.022;2023-04-24T11:46:35;13.20;99.90
14397;DHT22;50653;47.810;13.022;2023-04-24T11:49:03;13.30;98.90
14397;DHT22;50653;47.810;13.022;2023-04-24T11:51:29;13.40;98.50
14397;DHT22;50653;47.810;13.022;2023-04-24T11:53:55;13.30;98.60
14397;DHT22;50653;47.810;13.022;2023-04-24T11:56:22;13.20;98.60
14397;DHT22;50653;47.810;13.022;2023-04-24T11:58:48;13.40;98.80
14397;DHT22;50653;47.810;13.022;2023-04-24T12:01:14;13.30;98.00
14397;DHT22;50653;47.810;13.022;2023-04-24T12:03:39;13.50;99.00
14397;DHT22;50653;47.810;13.022;2023-04-24T12:06:10;13.60;98.50
14397;DHT22;50653;47.810;13.022;2023-04-24T12:08:36;13.50;97.60
14397;DHT22;50653;47.810;13.022;2023-04-24T12:11:04;13.50;97.00
14397;DHT22;50653;47.810;13.022;2023-04-24T12:13:30;13.50;97.50
14397;DHT22;50653;47.810;13.022;2023-04-24T12:16:01;13.60;97.40
14397;DHT22;50653;47.810;13.022;2023-04-24T12:18:27;13.70;97.60
14397;DHT22;50653;47.810;13.022;2023-04-24T12:20:53;13.70;97.50
14397;DHT22;50653;47.810;13.022;2023-04-24T12:23:35;13.60;96.60
14397;DHT22;50653;47.810;13.022;2023-04-24T12:26:06;13.70;96.10
14397;DHT22;50653;47.810;13.022;2023-04-24T12:28:36;13.60;95.90
14397;DHT22;50653;47.810;13.022;2023-04-24T12:31:02;13.70;94.90
14397;DHT22;50653;47.810;13.022;2023-04-24T12:33:33;13.80;95.60
14397;DHT22;50653;47.810;13.022;2023-04-24T12:35:59;13.70;94.30
14397;DHT22;50653;47.810;13.022;2023-04-24T12:38:26;13.80;94.70
14397;DHT22;50653;47.810;13.022;2023-04-24T12:41:03;13.90;95.40
14397;DHT22;50653;47.810;13.022;2023-04-24T12:43:30;13.90;95.60
14397;DHT22;50653;47.810;13.022;2023-04-24T12:45:55;13.60;94.60
14397;DHT22;50653;47.810;13.022;2023-04-24T12:48:22;13.80;95.40
14397;DHT22;50653;47.810;13.022;2023-04-24T12:50:48;13.60;93.70
14397;DHT22;50653;47.810;13.022;2023-04-24T12:53:14;13.70;94.80
14397;DHT22;50653;47.810;13.022;2023-04-24T12:55:41;13.70;95.10
14397;DHT22;50653;47.810;13.022;2023-04-24T12:58:07;13.60;94.80
14397;DHT22;50653;47.810;13.022;2023-04-24T13:00:32;13.70;95.20
14397;DHT22;50653;47.810;13.022;2023-04-24T13:02:58;13.50;95.10
14397;DHT22;50653;47.810;13.022;2023-04-24T13:05:24;13.20;96.10
14397;DHT22;50653;47.810;13.022;2023-04-24T13:07:50;13.10;97.70
14397;DHT22;50653;47.810;13.022;2023-04-24T13:10:15;13.00;99.10
14397;DHT22;50653;47.810;13.022;2023-04-24T13:12:41;13.00;99.90
14397;DHT22;50653;47.810;13.022;2023-04-24T13:15:10;13.10;99.90
14397;DHT22;50653;47.810;13.022;2023-04-24T13:17:36;13.00;99.90
14397;DHT22;50653;47.810;13.022;2023-04-24T13:20:02;12.90;99.90
14397;DHT22;50653;47.810;13.022;2023-04-24T13:22:28;12.60;99.90
14397;DHT22;50653;47.810;13.022;2023-04-24T13:24:53;12.60;99.90
14397;DHT22;50653;47.810;13.022;2023-04-24T13:27:19;12.20;99.90
14397;DHT22;50653;47.810;13.022;2023-04-24T13:29:45;10.60;99.90
14397;DHT22;50653;47.810;13.022;2023-04-24T13:32:11;10.00;99.90
14397;DHT22;50653;47.810;13.022;2023-04-24T13:34:37;10.40;99.90
14397;DHT22;50653;47.810;13.022;2023-04-24T13:37:03;10.80;99.90
14397;DHT22;50653;47.810;13.022;2023-04-24T13:39:29;10.10;99.90
14397;DHT22;50653;47.810;13.022;2023-04-24T13:41:55;9.90;99.90
14397;DHT22;50653;47.810;13.022;2023-04-24T13:44:22;10.50;99.90
14397;DHT22;50653;47.810;13.022;2023-04-24T13:46:50;10.10;99.90
14397;DHT22;50653;47.810;13.022;2023-04-24T13:49:17;10.30;99.90
14397;DHT22;50653;47.810;13.022;2023-04-24T13:51:44;10.90;99.90
14397;DHT22;50653;47.810;13.022;2023-04-24T13:54:09;11.20;99.90
14397;DHT22;50653;47.810;13.022;2023-04-24T13:56:35;11.00;99.90
14397;DHT22;50653;47.810;13.022;2023-04-24T13:59:01;11.00;99.90
14397;DHT22;50653;47.810;13.022;2023-04-24T14:01:27;11.20;99.90
14397;DHT22;50653;47.810;13.022;2023-04-24T14:03:53;11.40;99.90
14397;DHT22;50653;47.810;13.022;2023-04-24T14:06:20;11.00;99.90
14397;DHT22;50653;47.810;13.022;2023-04-24T14:08:46;11.10;99.90
14397;DHT22;50653;47.810;13.022;2023-04-24T14:11:12;11.20;99.90
14397;DHT22;50653;47.810;13.022;2023-04-24T14:13:40;11.30;99.90
14397;DHT22;50653;47.810;13.022;2023-04-24T14:16:06;11.20;99.90
14397;DHT22;50653;47.810;13.022;2023-04-24T14:18:31;11.20;99.90
14397;DHT22;50653;47.810;13.022;2023-04-24T14:20:57;11.20;99.90
14397;DHT22;50653;47.810;13.022;2023-04-24T14:23:23;11.20;99.90
14397;DHT22;50653;47.810;13.022;2023-04-24T14:25:49;11.30;99.90
14397;DHT22;50653;47.810;13.022;2023-04-24T14:28:21;11.10;99.90
14397;DHT22;50653;47.810;13.022;2023-04-24T14:30:49;10.90;99.90
14397;DHT22;50653;47.810;13.022;2023-04-24T14:33:15;11.00;99.90
14397;DHT22;50653;47.810;13.022;2023-04-24T14:35:41;10.90;99.90
14397;DHT22;50653;47.810;13.022;2023-04-24T14:38:10;11.10;99.90
14397;DHT22;50653;47.810;13.022;2023-04-24T14:40:36;11.00;99.90
14397;DHT22;50653;47.810;13.022;2023-04-24T14:43:02;11.00;99.90
14397;DHT22;50653;47.810;13.022;2023-04-24T14:45:28;10.90;99.90
14397;DHT22;50653;47.810;13.022;2023-04-24T14:47:54;10.80;99.90
14397;DHT22;50653;47.810;13.022;2023-04-24T14:50:20;10.70;99.90
14397;DHT22;50653;47.810;13.022;2023-04-24T14:52:46;10.80;99.90
14397;DHT22;50653;47.810;13.022;2023-04-24T14:55:12;10.60;99.90
14397;DHT22;50653;47.810;13.022;2023-04-24T14:57:38;10.70;99.90
14397;DHT22;50653;47.810;13.022;2023-04-24T15:00:05;10.90;99.90
14397;DHT22;50653;47.810;13.022;2023-04-24T15:02:33;10.90;99.90
14397;DHT22;50653;47.810;13.022;2023-04-24T15:04:59;10.90;99.90
14397;DHT22;50653;47.810;13.022;2023-04-24T15:07:25;10.90;99.90
14397;DHT22;50653;47.810;13.022;2023-04-24T15:09:51;10.80;99.90
14397;DHT22;50653;47.810;13.022;2023-04-24T15:12:16;10.90;99.90
14397;DHT22;50653;47.810;13.022;2023-04-24T15:14:42;11.10;99.90
14397;DHT22;50653;47.810;13.022;2023-04-24T15:17:08;10.90;99.90
14397;DHT22;50653;47.810;13.022;2023-04-24T15:19:33;10.90;99.90
14397;DHT22;50653;47.810;13.022;2023-04-24T15:21:59;10.90;99.90
14397;DHT22;50653;47.810;13.022;2023-04-24T15:24:25;11.00;99.90